createdAt,value
2023-05-20T00:01:22.458Z,100435.94
2023-05-20T00:03:25.708Z,100474.41
2023-05-20T00:05:28.365Z,100524.19
2023-05-20T00:07:31.059Z,100506.03
2023-05-20T00:09:33.605Z,100506.63
2023-05-20T00:11:36.852Z,100465.19
2023-05-20T00:13:40.130Z,100496.69
2023-05-20T00:15:43.091Z,100414.84
2023-05-20T00:17:45.732Z,100529.63
2023-05-20T00:19:48.912Z,100483.13
2023-05-20T00:21:51.687Z,100527.03
2023-05-20T00:23:54.429Z,100500.34
2023-05-20T00:25:58.435Z,100476.41
2023-05-20T00:28:03.373Z,100508.38
2023-05-20T00:30:07.688Z,100467.09
2023-05-20T00:32:10.225Z,100488.06
2023-05-20T00:34:12.803Z,100512.38
2023-05-20T00:36:15.601Z,100508.50
2023-05-20T00:38:19.194Z,100478.41
2023-05-20T00:40:23.810Z,100540.22
2023-05-20T00:42:29.024Z,100500.47
2023-05-20T00:44:31.694Z,100478.19
2023-05-20T00:46:34.926Z,100474.88
2023-05-20T00:48:43.166Z,100492.09
2023-05-20T00:50:46.977Z,100469.81
2023-05-20T00:52:52.011Z,100488.31
2023-05-20T00:54:54.822Z,100465.44
2023-05-20T00:56:58.728Z,100451.38
2023-05-20T00:59:01.413Z,100495.25
2023-05-20T01:01:05.133Z,100506.47
2023-05-20T01:03:08.617Z,100487.59
2023-05-20T01:05:11.542Z,100396.53
2023-05-20T01:07:17.033Z,100471.91
2023-05-20T01:09:19.839Z,100402.44
2023-05-20T01:11:35.176Z,100439.72
2023-05-20T01:13:53.454Z,100532.44
2023-05-20T01:15:57.069Z,100464.00
2023-05-20T01:18:06.371Z,100414.00
2023-05-20T01:20:13.062Z,100450.94
2023-05-20T01:22:17.320Z,100464.84
2023-05-20T01:24:20.359Z,100447.75
2023-05-20T01:26:27.472Z,100512.16
2023-05-20T01:28:30.570Z,100469.06
2023-05-20T01:30:40.244Z,100482.41
2023-05-20T01:32:48.217Z,100513.09
2023-05-20T01:34:52.584Z,100516.13
2023-05-20T01:36:58.327Z,100483.81
2023-05-20T01:39:03.243Z,100414.78
2023-05-20T01:41:07.263Z,100514.94
2023-05-20T01:43:11.266Z,100461.13
2023-05-20T01:45:14.077Z,100497.09
2023-05-20T01:47:16.769Z,100482.94
2023-05-20T01:49:19.066Z,100458.72
2023-05-20T01:51:21.789Z,100449.31
2023-05-20T01:53:24.574Z,100457.31
2023-05-20T01:55:26.967Z,100441.53
2023-05-20T01:57:30.726Z,100479.66
2023-05-20T01:59:36.031Z,100478.63
2023-05-20T02:01:41.204Z,100462.69
2023-05-20T02:03:43.831Z,100474.22
2023-05-20T02:05:49.706Z,100490.03
2023-05-20T02:07:52.366Z,100505.03
2023-05-20T02:09:56.918Z,100491.34
2023-05-20T02:11:59.770Z,100487.81
2023-05-20T02:14:02.891Z,100486.16
2023-05-20T02:16:06.102Z,100472.09
2023-05-20T02:18:08.678Z,100507.16
2023-05-20T02:20:14.153Z,100393.44
2023-05-20T02:22:16.456Z,100502.09
2023-05-20T02:24:21.674Z,100467.53
2023-05-20T02:26:24.092Z,100463.63
2023-05-20T02:28:27.065Z,100463.00
2023-05-20T02:30:31.929Z,100484.72
2023-05-20T02:32:34.685Z,100462.41
2023-05-20T02:34:37.194Z,100430.81
2023-05-20T02:36:39.578Z,100451.41
2023-05-20T02:38:42.507Z,100503.00
2023-05-20T02:40:46.956Z,100524.31
2023-05-20T02:42:49.508Z,100493.38
2023-05-20T02:44:53.797Z,100495.41
2023-05-20T02:46:57.007Z,100539.22
2023-05-20T02:48:59.346Z,100501.81
2023-05-20T02:51:01.844Z,100489.63
2023-05-20T02:53:04.224Z,100467.47
2023-05-20T02:55:07.965Z,100493.78
2023-05-20T02:57:10.182Z,100530.63
2023-05-20T02:59:12.875Z,100471.59
2023-05-20T03:01:15.338Z,100483.53
2023-05-20T03:03:17.704Z,100473.38
2023-05-20T03:05:20.531Z,100458.59
2023-05-20T03:07:23.303Z,100490.94
2023-05-20T03:09:26.109Z,100481.16
2023-05-20T03:11:28.477Z,100463.78
2023-05-20T03:13:31.417Z,100434.44
2023-05-20T03:15:38.365Z,100466.50
2023-05-20T03:17:40.944Z,100487.81
2023-05-20T03:19:43.219Z,100433.16
2023-05-20T03:21:47.025Z,100456.31
2023-05-20T03:23:49.820Z,100463.75
2023-05-20T03:25:52.682Z,100423.47
2023-05-20T03:27:55.924Z,100456.31
2023-05-20T03:29:58.195Z,100435.75
2023-05-20T03:32:00.715Z,100490.09
2023-05-20T03:34:03.126Z,100479.44
2023-05-20T03:36:06.749Z,100446.66
2023-05-20T03:38:11.130Z,100490.22
2023-05-20T03:40:15.214Z,100471.22
2023-05-20T03:42:18.191Z,100467.91
2023-05-20T03:44:21.491Z,100446.22
2023-05-20T03:46:24.525Z,100459.44
2023-05-20T03:48:27.257Z,100499.69
2023-05-20T03:50:31.399Z,100497.53
2023-05-20T03:52:34.228Z,100491.25
2023-05-20T03:54:37.336Z,100491.13
2023-05-20T03:56:41.347Z,100445.94
2023-05-20T03:58:43.808Z,100473.81
2023-05-20T04:00:47.188Z,100484.19
2023-05-20T04:02:49.851Z,100439.03
2023-05-20T04:04:58.349Z,100443.06
2023-05-20T04:07:05.134Z,100480.16
2023-05-20T04:09:07.636Z,100548.16
2023-05-20T04:11:10.449Z,100500.97
2023-05-20T04:13:12.831Z,100552.31
2023-05-20T04:15:17.235Z,100507.84
2023-05-20T04:17:31.939Z,100477.84
2023-05-20T04:19:35.580Z,100529.56
2023-05-20T04:21:38.223Z,100427.19
2023-05-20T04:23:41.649Z,100476.63
2023-05-20T04:25:45.429Z,100436.13
2023-05-20T04:27:50.548Z,100476.03
2023-05-20T04:29:55.177Z,100500.00
2023-05-20T04:31:59.126Z,100507.91
2023-05-20T04:34:03.125Z,100519.13
2023-05-20T04:36:09.278Z,100464.63
2023-05-20T04:38:12.118Z,100457.16
2023-05-20T04:40:15.384Z,100507.19
2023-05-20T04:42:22.684Z,100504.22
2023-05-20T04:44:26.733Z,100428.91
2023-05-20T04:46:29.396Z,100518.28
2023-05-20T04:48:33.171Z,100492.28
2023-05-20T04:50:35.536Z,100463.63
2023-05-20T04:52:39.551Z,100500.00
2023-05-20T04:54:41.968Z,100494.22
2023-05-20T04:56:45.715Z,100520.53
2023-05-20T04:58:48.360Z,100510.78
2023-05-20T05:00:52.668Z,100547.94
2023-05-20T05:02:55.252Z,100436.72
2023-05-20T05:04:57.887Z,100514.41
2023-05-20T05:07:00.551Z,100434.66
2023-05-20T05:09:03.207Z,100512.91
2023-05-20T05:11:07.361Z,100520.34
2023-05-20T05:13:10.136Z,100499.81
2023-05-20T05:15:13.435Z,100500.97
2023-05-20T05:17:18.100Z,100513.25
2023-05-20T05:19:20.573Z,100490.22
2023-05-20T05:21:23.843Z,100436.81
2023-05-20T05:23:26.702Z,100426.97
2023-05-20T05:25:29.562Z,100465.47
2023-05-20T05:27:35.621Z,100517.06
2023-05-20T05:29:38.833Z,100515.16
2023-05-20T05:31:41.514Z,100474.22
2023-05-20T05:33:44.559Z,100508.81
2023-05-20T05:35:47.551Z,100529.78
2023-05-20T05:37:51.100Z,100498.84
2023-05-20T05:39:53.856Z,100528.16
2023-05-20T05:41:56.662Z,100493.47
2023-05-20T05:44:00.463Z,100441.16
2023-05-20T05:46:05.297Z,100573.59
2023-05-20T05:48:08.837Z,100471.50
2023-05-20T05:50:11.829Z,100527.44
2023-05-20T05:52:15.198Z,100547.97
2023-05-20T05:54:19.500Z,100528.97
2023-05-20T05:56:22.101Z,100565.81
2023-05-20T05:58:25.334Z,100557.38
2023-05-20T06:00:28.158Z,100510.25
2023-05-20T06:02:31.008Z,100495.00
2023-05-20T06:04:35.354Z,100523.00
2023-05-20T06:06:38.542Z,100507.50
2023-05-20T06:08:41.437Z,100419.78
2023-05-20T06:10:50.832Z,100522.38
2023-05-20T06:13:05.184Z,100456.09
2023-05-20T06:15:10.826Z,100462.34
2023-05-20T06:17:14.078Z,100508.38
2023-05-20T06:19:17.030Z,100508.19
2023-05-20T06:21:20.598Z,100471.81
2023-05-20T06:23:23.135Z,100490.41
2023-05-20T06:25:31.552Z,100428.66
2023-05-20T06:27:34.737Z,100546.50
2023-05-20T06:29:37.340Z,100518.06
2023-05-20T06:31:40.162Z,100523.28
2023-05-20T06:33:43.676Z,100479.84
2023-05-20T06:35:48.540Z,100491.13
2023-05-20T06:37:51.192Z,100536.66
2023-05-20T06:39:54.660Z,100463.16
2023-05-20T06:41:58.261Z,100567.72
2023-05-20T06:44:06.819Z,100501.53
2023-05-20T06:46:29.649Z,100566.34
2023-05-20T06:48:39.258Z,100578.03
2023-05-20T06:50:43.078Z,100542.63
2023-05-20T06:52:45.498Z,100508.63
2023-05-20T06:54:48.599Z,100518.06
2023-05-20T06:56:51.378Z,100505.06
2023-05-20T06:58:55.588Z,100483.59
2023-05-20T07:00:58.299Z,100551.97
2023-05-20T07:03:02.426Z,100522.59
2023-05-20T07:05:05.241Z,100516.56
2023-05-20T07:07:08.066Z,100442.63
2023-05-20T07:09:10.678Z,100467.97
2023-05-20T07:11:13.485Z,100543.28
2023-05-20T07:13:16.719Z,100506.59
2023-05-20T07:15:20.064Z,100463.53
2023-05-20T07:17:23.099Z,100500.63
2023-05-20T07:19:26.817Z,100534.28
2023-05-20T07:21:29.790Z,100460.00
2023-05-20T07:23:55.550Z,100521.34
2023-05-20T07:25:58.143Z,100435.84
2023-05-20T07:28:01.259Z,100489.88
2023-05-20T07:30:04.810Z,100478.72
2023-05-20T07:32:10.947Z,100498.91
2023-05-20T07:34:14.168Z,100447.34
2023-05-20T07:36:17.184Z,100451.56
2023-05-20T07:38:23.590Z,100482.91
2023-05-20T07:40:39.642Z,100542.34
2023-05-20T07:42:42.172Z,100443.03
2023-05-20T07:44:46.005Z,100489.50
2023-05-20T07:46:48.985Z,100495.59
2023-05-20T07:48:51.875Z,100519.53
2023-05-20T07:50:57.488Z,100461.03
2023-05-20T07:52:59.931Z,100490.19
2023-05-20T07:55:06.397Z,100534.00
2023-05-20T07:57:09.226Z,100468.91
2023-05-20T07:59:11.725Z,100498.84
2023-05-20T08:01:19.121Z,100440.44
2023-05-20T08:03:23.403Z,100388.28
2023-05-20T08:05:42.657Z,100497.25
2023-05-20T08:07:46.443Z,100491.06
2023-05-20T08:09:51.508Z,100456.34
2023-05-20T08:11:56.216Z,100452.38
2023-05-20T08:13:58.854Z,100489.75
2023-05-20T08:16:07.013Z,100476.88
2023-05-20T08:18:10.174Z,100476.06
2023-05-20T08:20:13.765Z,100470.03
2023-05-20T08:22:16.243Z,100505.34
2023-05-20T08:24:19.613Z,100456.94
2023-05-20T08:26:24.859Z,100480.53
2023-05-20T08:28:27.858Z,100448.56
2023-05-20T08:30:31.546Z,100450.94
2023-05-20T08:32:35.370Z,100502.97
2023-05-20T08:34:38.279Z,100446.69
2023-05-20T08:36:40.824Z,100435.03
2023-05-20T08:38:43.967Z,100493.97
2023-05-20T08:40:53.728Z,100459.91
2023-05-20T08:42:57.990Z,100444.25
2023-05-20T08:45:02.752Z,100474.38
2023-05-20T08:47:09.780Z,100455.41
2023-05-20T08:49:13.134Z,100471.75
2023-05-20T08:51:18.853Z,100478.34
2023-05-20T08:53:22.934Z,100481.34
2023-05-20T08:55:31.312Z,100419.34
2023-05-20T08:57:34.915Z,100428.94
2023-05-20T08:59:38.480Z,100418.91
2023-05-20T09:01:44.638Z,100408.50
2023-05-20T09:03:48.096Z,100442.09
2023-05-20T09:05:50.732Z,100434.28
2023-05-20T09:07:54.170Z,100488.47
2023-05-20T09:09:57.362Z,100446.34
2023-05-20T09:12:02.093Z,100420.25
2023-05-20T09:14:16.792Z,100441.09
2023-05-20T09:16:19.984Z,100414.91
2023-05-20T09:18:23.155Z,100434.38
2023-05-20T09:20:26.535Z,100428.47
2023-05-20T09:22:30.987Z,100447.34
2023-05-20T09:24:33.704Z,100420.31
2023-05-20T09:26:36.720Z,100425.47
2023-05-20T09:28:41.891Z,100412.97
2023-05-20T09:30:46.025Z,100421.63
2023-05-20T09:32:56.022Z,100389.72
2023-05-20T09:34:59.556Z,100449.13
2023-05-20T09:37:03.002Z,100431.56
2023-05-20T09:39:10.208Z,100428.75
2023-05-20T09:41:14.223Z,100420.53
2023-05-20T09:43:18.450Z,100403.63
2023-05-20T09:45:25.657Z,100373.19
2023-05-20T09:47:28.526Z,100409.75
2023-05-20T09:49:33.274Z,100411.69
2023-05-20T09:51:36.301Z,100393.00
2023-05-20T09:53:38.761Z,100411.19
2023-05-20T09:55:42.618Z,100407.34
2023-05-20T09:57:46.552Z,100365.88
2023-05-20T09:59:52.235Z,100447.44
2023-05-20T10:01:54.898Z,100431.47
2023-05-20T10:03:57.833Z,100426.88
2023-05-20T10:06:26.497Z,100396.06
2023-05-20T10:09:03.072Z,100390.00
2023-05-20T10:11:27.245Z,100394.00
2023-05-20T10:13:47.902Z,100438.34
2023-05-20T10:15:59.792Z,100438.59
2023-05-20T10:18:29.818Z,100441.06
2023-05-20T10:20:32.620Z,100386.63
2023-05-20T10:22:35.179Z,100397.44
2023-05-20T10:24:43.312Z,100361.22
2023-05-20T10:26:55.813Z,100380.69
2023-05-20T10:28:58.218Z,100428.28
2023-05-20T10:31:01.503Z,100378.91
2023-05-20T10:33:07.315Z,100388.94
2023-05-20T10:35:10.766Z,100374.50
2023-05-20T10:37:25.222Z,100324.34
2023-05-20T10:39:34.497Z,100388.09
2023-05-20T10:41:37.854Z,100365.91
2023-05-20T10:43:40.701Z,100393.59
2023-05-20T10:45:58.132Z,100330.34
2023-05-20T10:48:04.035Z,100339.63
2023-05-20T10:50:08.333Z,100385.50
2023-05-20T10:52:11.399Z,100391.56
2023-05-20T10:54:15.586Z,100360.94
2023-05-20T10:56:23.161Z,100365.69
2023-05-20T10:58:26.298Z,100377.19
2023-05-20T11:00:28.997Z,100399.31
2023-05-20T11:02:33.307Z,100341.41
2023-05-20T11:04:36.456Z,100368.94
2023-05-20T11:06:39.178Z,100324.72
2023-05-20T11:08:42.516Z,100348.81
2023-05-20T11:10:45.664Z,100341.81
2023-05-20T11:12:50.657Z,100355.19
2023-05-20T11:14:56.461Z,100309.44
2023-05-20T11:17:00.336Z,100343.56
2023-05-20T11:19:03.923Z,100349.47
2023-05-20T11:21:07.327Z,100333.22
2023-05-20T11:23:14.612Z,100325.63
2023-05-20T11:25:18.810Z,100322.47
2023-05-20T11:27:22.554Z,100343.00
2023-05-20T11:29:27.458Z,100314.38
2023-05-20T11:31:30.314Z,100325.22
2023-05-20T11:33:33.148Z,100314.09
2023-05-20T11:35:35.833Z,100312.03
2023-05-20T11:37:38.478Z,100322.72
2023-05-20T11:39:41.255Z,100327.09
2023-05-20T11:41:44.326Z,100280.16
2023-05-20T11:43:47.179Z,100284.84
2023-05-20T11:46:00.879Z,100309.09
2023-05-20T11:48:05.570Z,100312.50
2023-05-20T11:50:10.419Z,100298.53
2023-05-20T11:52:13.100Z,100298.81
2023-05-20T11:54:16.479Z,100307.97
2023-05-20T11:56:22.258Z,100296.28
2023-05-20T11:58:30.821Z,100291.69
2023-05-20T12:00:43.084Z,100276.16
2023-05-20T12:02:53.250Z,100333.59
2023-05-20T12:04:56.587Z,100297.00
2023-05-20T12:06:59.336Z,100293.00
2023-05-20T12:09:07.409Z,100290.41
2023-05-20T12:11:10.408Z,100305.81
2023-05-20T12:13:14.180Z,100279.94
2023-05-20T12:15:16.946Z,100280.69
2023-05-20T12:17:19.378Z,100313.84
2023-05-20T12:19:22.187Z,100229.28
2023-05-20T12:21:24.686Z,100297.66
2023-05-20T12:23:27.479Z,100261.59
2023-05-20T12:25:30.575Z,100259.16
2023-05-20T12:27:36.088Z,100283.09
2023-05-20T12:29:39.094Z,100259.22
2023-05-20T12:31:41.865Z,100256.41
2023-05-20T12:33:45.913Z,100305.38
2023-05-20T12:35:48.794Z,100282.38
2023-05-20T12:37:51.294Z,100307.31
2023-05-20T12:39:53.843Z,100288.97
2023-05-20T12:41:56.685Z,100267.75
2023-05-20T12:43:59.537Z,100283.25
2023-05-20T12:46:02.161Z,100273.81
2023-05-20T12:48:07.770Z,100267.56
2023-05-20T12:50:10.952Z,100281.97
2023-05-20T12:52:21.935Z,100275.13
2023-05-20T12:54:28.628Z,100268.75
2023-05-20T12:56:31.844Z,100231.75
2023-05-20T12:58:34.732Z,100196.88
2023-05-20T13:00:37.214Z,100253.38
2023-05-20T13:02:42.224Z,100258.50
2023-05-20T13:04:45.140Z,100239.81
2023-05-20T13:06:48.066Z,100232.44
2023-05-20T13:08:50.418Z,100247.50
2023-05-20T13:10:53.053Z,100256.84
2023-05-20T13:12:56.881Z,100251.75
2023-05-20T13:14:59.799Z,100245.25
2023-05-20T13:17:02.725Z,100247.50
2023-05-20T13:19:08.487Z,100223.84
2023-05-20T13:21:12.025Z,100179.66
2023-05-20T13:23:15.112Z,100164.84
2023-05-20T13:25:18.310Z,100230.47
2023-05-20T13:27:21.343Z,100249.81
2023-05-20T13:29:25.268Z,100233.94
2023-05-20T13:31:28.386Z,100236.56
2023-05-20T13:33:30.939Z,100215.75
2023-05-20T13:35:34.516Z,100213.53
2023-05-20T13:37:37.936Z,100219.47
2023-05-20T13:39:40.765Z,100188.09
2023-05-20T13:41:44.061Z,100209.84
2023-05-20T13:43:47.853Z,100224.50
2023-05-20T13:45:50.651Z,100207.63
2023-05-20T13:47:53.534Z,100206.00
2023-05-20T13:49:56.293Z,100223.06
2023-05-20T13:51:59.420Z,100228.78
2023-05-20T13:54:01.846Z,100211.63
2023-05-20T13:56:05.619Z,100139.13
2023-05-20T13:58:12.243Z,100223.50
2023-05-20T14:00:15.841Z,100192.94
2023-05-20T14:02:18.900Z,100211.06
2023-05-20T14:04:23.047Z,100197.06
2023-05-20T14:06:27.706Z,100138.03
2023-05-20T14:08:30.686Z,100165.75
2023-05-20T14:10:33.864Z,100186.47
2023-05-20T14:12:37.634Z,100163.69
2023-05-20T14:14:40.593Z,100206.03
2023-05-20T14:16:43.134Z,100180.56
2023-05-20T14:18:46.597Z,100176.34
2023-05-20T14:20:49.605Z,100159.00
2023-05-20T14:22:55.487Z,100155.56
2023-05-20T14:24:59.172Z,100130.31
2023-05-20T14:27:01.777Z,100164.09
2023-05-20T14:29:04.616Z,100167.91
2023-05-20T14:31:09.685Z,100152.13
2023-05-20T14:33:12.446Z,100170.13
2023-05-20T14:35:15.510Z,100180.91
2023-05-20T14:37:18.866Z,100169.78
2023-05-20T14:39:21.701Z,100154.13
2023-05-20T14:41:24.261Z,100154.72
2023-05-20T14:43:26.722Z,100151.44
2023-05-20T14:45:29.244Z,100136.69
2023-05-20T14:47:33.976Z,100122.16
2023-05-20T14:49:39.509Z,100148.19
2023-05-20T14:51:43.456Z,100130.69
2023-05-20T14:53:46.224Z,100161.44
2023-05-20T14:55:49.135Z,100122.97
2023-05-20T14:57:51.973Z,100157.97
2023-05-20T14:59:54.722Z,100144.56
2023-05-20T15:01:57.340Z,100166.53
2023-05-20T15:04:00.294Z,100145.38
2023-05-20T15:06:03.287Z,100146.22
2023-05-20T15:08:07.314Z,100119.31
2023-05-20T15:10:10.131Z,100170.41
2023-05-20T15:12:12.978Z,100133.59
2023-05-20T15:14:15.784Z,100160.63
2023-05-20T15:16:21.033Z,100122.19
2023-05-20T15:18:24.110Z,100101.41
2023-05-20T15:20:26.994Z,100147.44
2023-05-20T15:22:30.073Z,100082.09
2023-05-20T15:24:33.114Z,100131.97
2023-05-20T15:26:36.663Z,100145.19
2023-05-20T15:28:40.459Z,100128.88
2023-05-20T15:30:43.306Z,100120.56
2023-05-20T15:32:48.151Z,100107.94
2023-05-20T15:34:51.797Z,100118.13
2023-05-20T15:36:54.716Z,100125.47
2023-05-20T15:38:57.245Z,100095.53
2023-05-20T15:41:00.115Z,100112.03
2023-05-20T15:43:02.526Z,100112.41
2023-05-20T15:45:05.558Z,100115.69
2023-05-20T15:47:08.706Z,100079.47
2023-05-20T15:49:13.005Z,100114.44
2023-05-20T15:51:15.649Z,100097.97
2023-05-20T15:53:18.386Z,100116.47
2023-05-20T15:55:23.512Z,100142.13
2023-05-20T15:57:28.118Z,100125.03
2023-05-20T15:59:30.706Z,100066.84
2023-05-20T16:01:33.174Z,100100.63
2023-05-20T16:03:35.970Z,100116.88
2023-05-20T16:05:39.238Z,100095.31
2023-05-20T16:07:43.062Z,100101.00
2023-05-20T16:09:45.807Z,100073.69
2023-05-20T16:11:52.079Z,100074.91
2023-05-20T16:13:54.601Z,100139.66
2023-05-20T16:15:58.233Z,100095.47
2023-05-20T16:18:03.882Z,100095.47
2023-05-20T16:20:07.398Z,100046.97
2023-05-20T16:22:09.789Z,100091.28
2023-05-20T16:24:12.964Z,100116.72
2023-05-20T16:26:16.109Z,100096.72
2023-05-20T16:28:19.459Z,100072.47
2023-05-20T16:30:21.850Z,100029.53
2023-05-20T16:32:24.378Z,100104.09
2023-05-20T16:34:27.991Z,100111.44
2023-05-20T16:36:31.920Z,100083.75
2023-05-20T16:38:35.254Z,100068.69
2023-05-20T16:40:37.815Z,100062.75
2023-05-20T16:42:41.043Z,100089.63
2023-05-20T16:44:43.570Z,100102.84
2023-05-20T16:46:46.110Z,100078.41
2023-05-20T16:48:48.624Z,100077.78
2023-05-20T16:50:51.426Z,100073.41
2023-05-20T16:52:54.830Z,100059.19
2023-05-20T16:55:02.977Z,100081.16
2023-05-20T16:57:06.889Z,100075.22
2023-05-20T16:59:15.016Z,100076.63
2023-05-20T17:01:17.687Z,100062.94
2023-05-20T17:03:21.208Z,100096.75
2023-05-20T17:05:26.113Z,100059.84
2023-05-20T17:07:28.539Z,100103.41
2023-05-20T17:09:31.096Z,100091.53
2023-05-20T17:11:34.443Z,100101.50
2023-05-20T17:13:37.514Z,100091.91
2023-05-20T17:15:40.575Z,100087.84
2023-05-20T17:17:43.609Z,100059.28
2023-05-20T17:19:46.630Z,100073.47
2023-05-20T17:21:49.116Z,100073.19
2023-05-20T17:23:51.785Z,100086.38
2023-05-20T17:25:54.170Z,100098.03
2023-05-20T17:27:57.312Z,100119.34
2023-05-20T17:30:00.401Z,100035.34
2023-05-20T17:32:03.039Z,100076.00
2023-05-20T17:34:05.803Z,100076.81
2023-05-20T17:36:08.966Z,100114.72
2023-05-20T17:38:11.679Z,100097.06
2023-05-20T17:40:14.404Z,100105.19
2023-05-20T17:42:17.225Z,100101.66
2023-05-20T17:44:20.370Z,100074.69
2023-05-20T17:46:23.572Z,100082.97
2023-05-20T17:48:26.810Z,100062.47
2023-05-20T17:50:29.583Z,100081.19
2023-05-20T17:52:32.017Z,100097.59
2023-05-20T17:54:35.069Z,100066.16
2023-05-20T17:56:38.059Z,100064.09
2023-05-20T17:58:41.514Z,100077.81
2023-05-20T18:00:45.140Z,100122.81
2023-05-20T18:02:51.233Z,100119.38
2023-05-20T18:04:54.444Z,100080.78
2023-05-20T18:06:58.108Z,100079.06
2023-05-20T18:09:02.638Z,100088.31
2023-05-20T18:11:05.661Z,100121.06
2023-05-20T18:13:08.541Z,100071.16
2023-05-20T18:15:11.638Z,100092.69
2023-05-20T18:17:14.671Z,100115.25
2023-05-20T18:19:17.240Z,100087.44
2023-05-20T18:21:21.858Z,100105.63
2023-05-20T18:23:24.732Z,100100.09
2023-05-20T18:25:27.955Z,100066.31
2023-05-20T18:27:30.458Z,100073.19
2023-05-20T18:29:33.150Z,100109.22
2023-05-20T18:31:37.144Z,100109.59
2023-05-20T18:33:41.630Z,100067.31
2023-05-20T18:35:44.270Z,100124.56
2023-05-20T18:37:47.406Z,100100.94
2023-05-20T18:39:50.168Z,100124.84
2023-05-20T18:41:53.536Z,100100.69
2023-05-20T18:43:56.898Z,100110.53
2023-05-20T18:45:59.920Z,100099.41
2023-05-20T18:48:02.836Z,100110.69
2023-05-20T18:50:07.025Z,100106.97
2023-05-20T18:52:10.172Z,100107.81
2023-05-20T18:54:13.088Z,100089.72
2023-05-20T18:56:15.841Z,100103.16
2023-05-20T18:58:18.617Z,100042.94
2023-05-20T19:00:21.504Z,100098.59
2023-05-20T19:02:24.366Z,100072.09
2023-05-20T19:04:27.272Z,100071.91
2023-05-20T19:06:29.762Z,100098.91
2023-05-20T19:08:32.848Z,100049.34
2023-05-20T19:10:35.526Z,100088.09
2023-05-20T19:12:38.204Z,100074.53
2023-05-20T19:14:41.586Z,100097.13
2023-05-20T19:16:44.350Z,100039.50
2023-05-20T19:18:47.096Z,100098.25
2023-05-20T19:20:50.491Z,100040.78
2023-05-20T19:22:53.644Z,100133.91
2023-05-20T19:24:56.603Z,100116.75
2023-05-20T19:26:59.287Z,100114.59
2023-05-20T19:29:02.616Z,100086.09
2023-05-20T19:31:05.838Z,100055.94
2023-05-20T19:33:08.505Z,100031.69
2023-05-20T19:35:11.467Z,100063.75
2023-05-20T19:37:14.467Z,100130.59
2023-05-20T19:39:18.309Z,100074.38
2023-05-20T19:41:21.764Z,100046.16
2023-05-20T19:43:24.860Z,100093.63
2023-05-20T19:45:27.699Z,100084.28
2023-05-20T19:47:30.649Z,100105.53
2023-05-20T19:49:33.727Z,100107.63
2023-05-20T19:51:36.365Z,100143.00
2023-05-20T19:53:38.989Z,100056.28
2023-05-20T19:55:41.977Z,100101.66
2023-05-20T19:57:47.021Z,100108.00
2023-05-20T19:59:52.222Z,100137.81
2023-05-20T20:01:57.129Z,100132.00
2023-05-20T20:04:00.260Z,100084.25
2023-05-20T20:06:03.216Z,100106.16
2023-05-20T20:08:06.131Z,100122.16
2023-05-20T20:10:09.387Z,100129.97
2023-05-20T20:12:11.855Z,100122.75
2023-05-20T20:14:14.910Z,100111.59
2023-05-20T20:16:17.740Z,100095.47
2023-05-20T20:18:20.648Z,100078.84
2023-05-20T20:20:25.227Z,100109.19
2023-05-20T20:22:27.780Z,100079.97
2023-05-20T20:24:31.705Z,100040.31
2023-05-20T20:26:35.354Z,100049.41
2023-05-20T20:28:38.051Z,100103.22
2023-05-20T20:30:40.982Z,100072.06
2023-05-20T20:32:43.877Z,100137.97
2023-05-20T20:34:46.443Z,100085.78
2023-05-20T20:36:51.029Z,100064.97
2023-05-20T20:38:53.700Z,100053.97
2023-05-20T20:40:56.740Z,100089.28
2023-05-20T20:42:59.286Z,100088.31
2023-05-20T20:45:02.922Z,100063.22
2023-05-20T20:47:05.875Z,100105.63
2023-05-20T20:49:08.995Z,100123.66
2023-05-20T20:51:16.448Z,100119.84
2023-05-20T20:53:19.775Z,100072.13
2023-05-20T20:55:24.330Z,100042.78
2023-05-20T20:57:27.367Z,100044.94
2023-05-20T20:59:30.706Z,100060.22
2023-05-20T21:01:38.151Z,100033.44
2023-05-20T21:03:41.218Z,100033.19
2023-05-20T21:05:44.779Z,100075.13
2023-05-20T21:07:50.316Z,99985.44
2023-05-20T21:09:55.284Z,100042.19
2023-05-20T21:12:00.675Z,100105.69
2023-05-20T21:14:06.300Z,100028.63
2023-05-20T21:16:11.517Z,100056.50
2023-05-20T21:18:18.415Z,100071.88
2023-05-20T21:20:21.764Z,100092.72
2023-05-20T21:22:24.646Z,100034.53
2023-05-20T21:24:27.391Z,100084.16
2023-05-20T21:26:30.185Z,100034.94
2023-05-20T21:28:32.830Z,100052.25
2023-05-20T21:30:35.385Z,100105.97
2023-05-20T21:32:38.456Z,100083.69
2023-05-20T21:34:41.446Z,100009.63
2023-05-20T21:36:43.999Z,100105.38
2023-05-20T21:38:46.462Z,100065.91
2023-05-20T21:40:49.092Z,100046.38
2023-05-20T21:42:52.604Z,100050.44
2023-05-20T21:44:55.802Z,100038.69
2023-05-20T21:46:59.016Z,100033.09
2023-05-20T21:49:01.848Z,100077.50
2023-05-20T21:51:05.532Z,100059.63
2023-05-20T21:53:08.492Z,100091.91
2023-05-20T21:55:11.432Z,100066.50
2023-05-20T21:57:13.954Z,100056.94
2023-05-20T21:59:16.440Z,100052.69
2023-05-20T22:01:19.450Z,100025.78
2023-05-20T22:03:23.516Z,100097.41
2023-05-20T22:05:27.000Z,100047.41
2023-05-20T22:07:29.480Z,100041.94
2023-05-20T22:09:32.146Z,100108.16
2023-05-20T22:11:34.850Z,100063.28
2023-05-20T22:13:42.435Z,100047.84
2023-05-20T22:15:45.706Z,100076.69
2023-05-20T22:17:48.706Z,100054.69
2023-05-20T22:19:52.206Z,99984.19
2023-05-20T22:21:55.089Z,99992.34
2023-05-20T22:23:57.801Z,100036.13
2023-05-20T22:26:01.497Z,100001.53
2023-05-20T22:28:05.178Z,100042.44
2023-05-20T22:30:09.400Z,100074.66
2023-05-20T22:32:12.534Z,100086.75
2023-05-20T22:34:15.193Z,100077.34
2023-05-20T22:36:17.807Z,100106.88
2023-05-20T22:38:21.773Z,100029.91
2023-05-20T22:40:24.442Z,100080.38
2023-05-20T22:42:26.955Z,100041.97
2023-05-20T22:44:29.860Z,100018.31
2023-05-20T22:46:32.616Z,100034.56
2023-05-20T22:48:35.289Z,100046.91
2023-05-20T22:50:37.833Z,100084.25
2023-05-20T22:52:42.566Z,100041.97
2023-05-20T22:54:45.972Z,100052.00
2023-05-20T22:56:48.597Z,100050.44
2023-05-20T22:58:52.077Z,100024.06
2023-05-20T23:00:54.926Z,100024.06
2023-05-20T23:02:57.646Z,100060.72
2023-05-20T23:05:00.360Z,100039.16
2023-05-20T23:07:03.852Z,100013.06
2023-05-20T23:09:07.711Z,100049.31
2023-05-20T23:11:11.835Z,99990.56
2023-05-20T23:13:14.673Z,100019.78
2023-05-20T23:15:17.678Z,100040.88
2023-05-20T23:17:20.690Z,100040.63
2023-05-20T23:19:23.519Z,100046.50
2023-05-20T23:21:26.449Z,100038.84
2023-05-20T23:23:31.846Z,100057.34
2023-05-20T23:25:35.285Z,100004.31
2023-05-20T23:27:38.523Z,100036.31
2023-05-20T23:29:41.186Z,100005.44
2023-05-20T23:31:43.994Z,100009.81
2023-05-20T23:33:46.641Z,100061.63
2023-05-20T23:35:49.169Z,100008.03